Time;durP1;ratioP1;P1;durP2;ratioP2;P2;SDS_P1;SDS_P2;PMS_P1;PMS_P2;Temp;Humidity;BMP_temperature;BMP_pressure;BME280_temperature;BME280_humidity;BME280_pressure;Samples;Min_cycle;Max_cycle;Signal;HPM_P1;HPM_P2
2021/01/16 00:00:50;;;;;;;36.75;20.13;;;;;;;-1.95;79.32;96443.38;4956974;28;20054;-43
2021/01/16 00:03:17;;;;;;;42.85;21.05;;;;;;;-1.82;78.82;96451.06;4960757;28;20414;-41
2021/01/16 00:05:49;;;;;;;43.30;21.80;;;;;;;-1.81;78.58;96447.34;4966694;28;20137;-42
2021/01/16 00:08:17;;;;;;;34.13;18.45;;;;;;;-1.91;79.10;96452.47;4992270;23;20421;-42
2021/01/16 00:10:51;;;;;;;35.80;21.90;;;;;;;-2.17;79.92;96453.91;4970215;28;20066;-43
2021/01/16 00:13:20;;;;;;;38.85;21.77;;;;;;;-2.02;79.76;96453.34;4969515;28;20081;-43
2021/01/16 00:15:47;;;;;;;41.08;20.42;;;;;;;-1.97;79.32;96458.75;4972384;28;20417;-45
2021/01/16 00:18:16;;;;;;;37.17;21.30;;;;;;;-2.31;80.29;96452.56;4969608;28;20535;-43
2021/01/16 00:20:48;;;;;;;41.28;21.83;;;;;;;-2.37;81.42;96446.38;4963098;28;20071;-43
2021/01/16 00:23:16;;;;;;;38.08;21.05;;;;;;;-2.13;80.62;96439.13;4965876;28;20476;-42
2021/01/16 00:25:43;;;;;;;39.50;19.38;;;;;;;-2.17;80.29;96452.03;4970567;28;20578;-43
2021/01/16 00:28:28;;;;;;;37.65;19.95;;;;;;;-2.02;80.00;96453.34;4955814;28;20139;-44
2021/01/16 00:30:54;;;;;;;38.85;19.95;;;;;;;-2.30;81.45;96460.28;4952496;28;20090;-43
2021/01/16 00:33:30;;;;;;;36.33;20.02;;;;;;;-2.15;80.74;96459.75;4953392;28;20083;-43
2021/01/16 00:35:57;;;;;;;39.97;20.63;;;;;;;-2.06;80.27;96460.97;4953464;28;20051;-43
2021/01/16 00:38:25;;;;;;;41.88;21.38;;;;;;;-1.84;79.45;96476.19;4953074;28;20062;-44
2021/01/16 00:40:53;;;;;;;36.38;19.92;;;;;;;-1.78;78.88;96451.38;4952430;28;20055;-44
2021/01/16 00:43:19;;;;;;;37.08;19.65;;;;;;;-2.25;80.73;96467.53;4951969;29;20110;-43
2021/01/16 00:45:48;;;;;;;36.53;20.90;;;;;;;-2.13;80.28;96466.44;4952824;28;20653;-42
2021/01/16 00:48:20;;;;;;;39.92;20.00;;;;;;;-2.22;81.03;96454.59;4951901;29;20057;-45
2021/01/16 00:50:49;;;;;;;40.60;21.45;;;;;;;-2.23;80.82;96460.16;4951303;28;20047;-43
2021/01/16 00:53:19;;;;;;;38.55;20.67;;;;;;;-2.05;80.06;96461.78;4951995;29;20051;-45
2021/01/16 00:55:54;;;;;;;36.00;19.08;;;;;;;-2.20;80.71;96473.72;4951805;29;20777;-41
2021/01/16 00:58:21;;;;;;;35.22;18.88;;;;;;;-1.98;79.41;96478.31;4952564;28;20043;-43
2021/01/16 01:00:56;;;;;;;37.13;19.48;;;;;;;-1.93;79.21;96470.47;4952467;28;20051;-45
2021/01/16 01:03:28;;;;;;;37.15;19.27;;;;;;;-2.29;80.76;96472.50;4955537;29;20476;-42
2021/01/16 01:05:56;;;;;;;33.10;19.20;;;;;;;-1.95;79.25;96470.72;4956962;28;20085;-43
2021/01/16 01:08:27;;;;;;;35.30;19.77;;;;;;;-2.09;79.81;96465.94;4956138;28;20062;-42
2021/01/16 01:10:54;;;;;;;40.80;20.42;;;;;;;-1.84;79.09;96489.47;4955990;28;20126;-43
2021/01/16 01:13:21;;;;;;;37.47;20.65;;;;;;;-1.81;78.51;96479.19;4972146;28;20054;-43
2021/01/16 01:15:48;;;;;;;36.40;19.98;;;;;;;-1.85;78.59;96472.75;4975802;28;20077;-44
2021/01/16 01:18:15;;;;;;;38.95;19.95;;;;;;;-1.98;79.14;96473.03;4975340;28;20504;-44
2021/01/16 01:20:41;;;;;;;35.33;20.35;;;;;;;-2.06;79.08;96465.47;4957210;28;20130;-45
2021/01/16 01:23:08;;;;;;;33.22;17.20;;;;;;;-1.92;78.86;96477.38;4956378;28;20319;-42
2021/01/16 01:25:34;;;;;;;32.88;18.98;;;;;;;-2.07;79.75;96485.88;4955977;28;20055;-43
2021/01/16 01:28:02;;;;;;;34.50;19.17;;;;;;;-1.85;79.18;96478.06;4954505;28;20044;-43
2021/01/16 01:30:30;;;;;;;34.97;19.58;;;;;;;-2.25;80.26;96480.78;4953830;29;20051;-43
2021/01/16 01:32:57;;;;;;;34.90;19.55;;;;;;;-2.53;81.75;96481.59;4967671;28;20078;-44
2021/01/16 01:35:25;;;;;;;33.45;18.95;;;;;;;-2.51;81.95;96479.50;4974236;28;20138;-44
2021/01/16 01:37:54;;;;;;;34.00;18.13;;;;;;;-2.23;81.33;96486.66;4971026;28;20070;-43
2021/01/16 01:40:26;;;;;;;36.05;19.92;;;;;;;-2.07;79.79;96485.09;4953918;29;20065;-42
2021/01/16 01:42:56;;;;;;;36.42;19.20;;;;;;;-1.98;79.89;96481.81;4955842;28;20079;-43
2021/01/16 01:45:23;;;;;;;35.85;20.20;;;;;;;-1.68;78.46;96478.84;4955968;28;20058;-45
2021/01/16 01:47:50;;;;;;;37.33;19.58;;;;;;;-1.56;78.03;96485.91;4954332;28;20051;-44
2021/01/16 01:50:19;;;;;;;36.33;20.05;;;;;;;-1.83;78.80;96483.09;4955336;28;20134;-43
2021/01/16 01:52:50;;;;;;;38.20;20.25;;;;;;;-1.82;78.85;96480.22;4955923;28;20126;-43
2021/01/16 01:55:17;;;;;;;38.30;20.33;;;;;;;-1.78;78.95;96473.38;4955723;28;20055;-43
2021/01/16 01:57:49;;;;;;;35.90;17.83;;;;;;;-1.79;78.81;96477.06;4955779;28;20054;-44
2021/01/16 02:00:16;;;;;;;36.35;19.77;;;;;;;-1.83;78.73;96477.78;4954978;28;20085;-42
2021/01/16 02:02:43;;;;;;;37.90;19.65;;;;;;;-1.89;79.19;96476.91;4955098;28;20055;-43
2021/01/16 02:05:11;;;;;;;36.33;19.50;;;;;;;-1.92;79.43;96475.56;4955342;28;20416;-44
2021/01/16 02:07:44;;;;;;;44.83;22.52;;;;;;;-1.99;79.67;96474.06;4962693;28;20051;-43
2021/01/16 02:10:24;;;;;;;37.70;20.05;;;;;;;-2.03;79.58;96487.00;4974575;28;20109;-44
2021/01/16 02:12:54;;;;;;;38.05;20.30;;;;;;;-2.15;80.40;96484.41;4974003;28;20047;-45
2021/01/16 02:15:24;;;;;;;35.08;19.88;;;;;;;-2.25;80.73;96481.56;4968500;28;20055;-43
2021/01/16 02:17:59;;;;;;;34.10;19.08;;;;;;;-2.10;80.29;96475.75;4954047;29;20478;-42
2021/01/16 02:20:30;;;;;;;34.58;18.38;;;;;;;-2.01;79.70;96465.56;4954334;28;20226;-43
2021/01/16 02:22:57;;;;;;;38.60;19.67;;;;;;;-2.05;80.24;96473.19;4954932;28;20071;-44
2021/01/16 02:25:58;;;;;;;35.05;20.15;;;;;;;-2.02;80.06;96466.59;4955006;28;20137;-43
2021/01/16 02:28:30;;;;;;;35.55;19.17;;;;;;;-2.19;80.56;96471.88;4960647;28;20477;-42
2021/01/16 02:30:57;;;;;;;31.90;18.67;;;;;;;-2.06;80.29;96478.72;4954315;28;20051;-43
2021/01/16 02:33:26;;;;;;;35.15;19.35;;;;;;;-1.97;79.66;96464.84;4970495;28;20061;-44
2021/01/16 02:36:23;;;;;;;38.30;20.08;;;;;;;-2.13;80.51;96476.22;4970459;28;20484;-44
2021/01/16 02:39:02;;;;;;;37.20;19.40;;;;;;;-1.98;79.89;96473.84;4954906;28;20564;-44
2021/01/16 02:41:34;;;;;;;36.35;20.20;;;;;;;-1.79;78.78;96474.41;4953406;29;20130;-44
2021/01/16 02:44:12;;;;;;;34.55;18.70;;;;;;;-1.76;78.79;96470.47;4959734;28;20042;-43
2021/01/16 02:46:47;;;;;;;33.25;16.90;;;;;;;-2.05;79.56;96469.72;4974037;28;20109;-47
2021/01/16 02:49:29;;;;;;;33.00;19.02;;;;;;;-1.95;79.27;96472.56;4967673;28;20564;-44
2021/01/16 02:52:07;;;;;;;35.97;19.45;;;;;;;-1.95;79.34;96478.69;4953769;28;20102;-42
2021/01/16 02:54:41;;;;;;;32.53;18.77;;;;;;;-1.81;78.67;96465.13;4954549;28;20055;-42
2021/01/16 02:57:11;;;;;;;31.83;18.42;;;;;;;-1.97;79.10;96464.03;4964450;28;20085;-43
2021/01/16 02:59:41;;;;;;;33.58;18.42;;;;;;;-2.00;79.43;96459.22;4952471;28;20106;-42
2021/01/16 03:02:10;;;;;;;30.17;16.77;;;;;;;-2.03;78.76;96462.34;4952411;29;20074;-44
2021/01/16 03:04:38;;;;;;;36.03;18.27;;;;;;;-2.04;79.20;96464.19;4954205;28;20051;-43
2021/01/16 03:07:06;;;;;;;33.47;17.58;;;;;;;-1.91;78.80;96466.53;4965413;28;20390;-42
2021/01/16 03:09:35;;;;;;;33.10;16.63;;;;;;;-1.82;78.07;96461.66;4972108;28;20059;-43
2021/01/16 03:12:03;;;;;;;29.20;16.52;;;;;;;-1.94;78.49;96463.56;4972778;28;20086;-42
2021/01/16 03:14:38;;;;;;;33.80;17.48;;;;;;;-1.83;78.48;96462.69;4967438;28;20133;-44
2021/01/16 03:17:04;;;;;;;32.08;15.98;;;;;;;-1.89;78.46;96469.75;4953747;28;20130;-44
2021/01/16 03:19:35;;;;;;;30.15;16.77;;;;;;;-1.90;78.48;96465.50;4961481;28;20149;-44
2021/01/16 03:22:24;;;;;;;32.15;17.38;;;;;;;-1.95;78.67;96468.06;4972473;28;20105;-44
2021/01/16 03:24:57;;;;;;;29.92;17.50;;;;;;;-1.93;78.33;96473.13;4972260;28;20055;-43
2021/01/16 03:27:24;;;;;;;;;;;;;;;-1.96;78.62;96465.66;4972176;28;20066;-45
2021/01/16 03:29:52;;;;;;;36.67;17.95;;;;;;;-1.93;78.60;96475.78;4952440;29;19923;-45
2021/01/16 03:32:20;;;;;;;33.05;18.20;;;;;;;-2.07;79.35;96475.28;4958242;28;20070;-44
2021/01/16 03:34:48;;;;;;;33.55;18.15;;;;;;;-2.03;79.34;96476.41;4972818;28;20055;-43
2021/01/16 03:37:16;;;;;;;31.55;16.70;;;;;;;-2.04;79.61;96468.69;4958881;28;20070;-45
2021/01/16 03:39:48;;;;;;;36.42;18.73;;;;;;;-2.06;79.79;96473.44;4953530;28;20063;-43
2021/01/16 03:42:14;;;;;;;37.65;19.02;;;;;;;-2.06;79.96;96476.09;4952763;28;20569;-44
2021/01/16 03:44:41;;;;;;;33.72;18.05;;;;;;;-1.98;79.26;96468.56;4953804;28;20063;-44
2021/01/16 03:47:07;;;;;;;33.97;18.92;;;;;;;-1.90;78.89;96476.09;4971284;28;20074;-43
2021/01/16 03:49:34;;;;;;;33.08;19.60;;;;;;;-1.82;78.38;96466.97;4963799;28;20051;-45
2021/01/16 03:52:02;;;;;;;34.63;19.30;;;;;;;-2.06;79.15;96466.28;4952542;28;20054;-43
2021/01/16 03:54:29;;;;;;;34.85;18.77;;;;;;;-2.31;80.61;96468.47;4953459;28;20051;-43
2021/01/16 03:56:55;;;;;;;39.50;20.95;;;;;;;-2.37;80.35;96480.84;4953213;28;20061;-43
2021/01/16 03:59:22;;;;;;;32.10;17.40;;;;;;;-2.20;80.15;96467.63;4953390;28;20498;-42
2021/01/16 04:01:49;;;;;;;32.17;17.92;;;;;;;-2.10;79.69;96461.69;4953127;28;20057;-44
2021/01/16 04:04:16;;;;;;;37.05;19.67;;;;;;;-1.98;79.52;96468.56;4953222;28;20103;-43
2021/01/16 04:06:43;;;;;;;34.33;18.73;;;;;;;-2.33;80.24;96467.91;4963421;28;20481;-44
2021/01/16 04:09:09;;;;;;;37.30;20.63;;;;;;;-2.50;81.47;96462.53;4971307;28;20054;-43
2021/01/16 04:11:36;;;;;;;34.28;19.60;;;;;;;-2.39;80.69;96457.22;4971755;28;20051;-43
2021/01/16 04:14:03;;;;;;;34.28;19.15;;;;;;;-2.42;80.57;96462.97;4971641;28;20051;-43
2021/01/16 04:16:30;;;;;;;35.33;19.25;;;;;;;-2.27;80.33;96465.13;4953107;28;20051;-44
2021/01/16 04:18:56;;;;;;;38.55;19.40;;;;;;;-2.30;80.44;96470.09;4956262;28;20061;-44
2021/01/16 04:21:24;;;;;;;34.90;19.38;;;;;;;-2.35;80.28;96462.84;4971469;28;20130;-43
2021/01/16 04:23:50;;;;;;;38.85;19.70;;;;;;;-2.20;80.24;96470.28;4972286;28;20133;-42
2021/01/16 04:26:16;;;;;;;35.78;19.40;;;;;;;-2.30;79.86;96480.69;4972069;28;20082;-43
2021/01/16 04:28:43;;;;;;;37.38;19.63;;;;;;;-2.34;80.85;96480.34;4967107;28;20134;-42
2021/01/16 04:31:09;;;;;;;36.15;20.08;;;;;;;-2.39;80.27;96478.41;4952246;28;20052;-46
2021/01/16 04:33:36;;;;;;;37.65;20.63;;;;;;;-2.15;80.35;96473.00;4968063;28;20164;-43
2021/01/16 04:36:03;;;;;;;35.80;19.95;;;;;;;-1.96;79.06;96478.91;4954315;28;20428;-42
2021/01/16 04:38:30;;;;;;;38.00;20.80;;;;;;;-2.11;79.60;96476.81;4956533;28;20051;-44
2021/01/16 04:40:56;;;;;;;40.95;19.27;;;;;;;-2.04;79.11;96474.81;4956547;28;20106;-45
2021/01/16 04:43:24;;;;;;;33.53;19.25;;;;;;;-2.05;79.00;96475.81;4965706;28;20047;-44
2021/01/16 04:45:52;;;;;;;34.75;19.65;;;;;;;-1.93;78.78;96470.47;4976207;28;20170;-44
2021/01/16 04:48:20;;;;;;;37.58;19.33;;;;;;;-2.05;78.34;96475.03;4976000;28;20050;-42
2021/01/16 04:50:48;;;;;;;34.17;18.73;;;;;;;-2.12;79.29;96472.53;4957545;28;20138;-43
2021/01/16 04:53:17;;;;;;;35.90;18.20;;;;;;;-2.07;79.25;96474.47;4956773;28;20122;-43
2021/01/16 04:55:44;;;;;;;37.20;19.88;;;;;;;-2.51;80.84;96466.25;4956670;28;20055;-43
2021/01/16 04:58:11;;;;;;;37.08;20.13;;;;;;;-2.14;79.63;96474.63;4956868;28;20102;-44
2021/01/16 05:00:40;;;;;;;39.08;19.13;;;;;;;-2.66;81.39;96480.81;4975754;28;20137;-43
2021/01/16 05:03:12;;;;;;;36.80;19.48;;;;;;;-2.53;81.04;96471.00;4975881;28;20217;-43
2021/01/16 05:05:43;;;;;;;38.05;19.70;;;;;;;-2.31;80.37;96471.13;4975835;28;20062;-43
2021/01/16 05:08:10;;;;;;;37.92;19.73;;;;;;;-1.97;78.95;96466.69;4973860;28;20145;-43
2021/01/16 05:10:41;;;;;;;33.55;19.00;;;;;;;-1.62;77.58;96468.34;4975546;28;20101;-43
2021/01/16 05:13:18;;;;;;;34.03;19.10;;;;;;;-1.91;78.01;96468.41;4974596;28;20463;-43
2021/01/16 05:15:46;;;;;;;36.13;20.45;;;;;;;-1.89;78.14;96471.59;4975742;28;20481;-44
2021/01/16 05:18:15;;;;;;;37.10;20.17;;;;;;;-2.12;79.26;96478.63;4959142;28;20059;-43
2021/01/16 05:20:43;;;;;;;39.40;20.15;;;;;;;-2.08;79.22;96473.69;4973281;28;20055;-43
2021/01/16 05:23:16;;;;;;;38.00;19.65;;;;;;;-2.25;79.88;96483.44;4975952;28;20074;-44
2021/01/16 05:25:54;;;;;;;37.83;20.58;;;;;;;-2.29;80.25;96483.09;4975738;28;20061;-43
2021/01/16 05:28:25;;;;;;;37.67;19.48;;;;;;;-2.48;80.61;96479.03;4973694;28;20082;-42
2021/01/16 05:30:59;;;;;;;39.05;20.70;;;;;;;-2.43;80.60;96473.84;4956230;28;20670;-44
2021/01/16 05:33:29;;;;;;;36.47;19.42;;;;;;;-2.38;80.25;96476.56;4971774;28;20505;-43
2021/01/16 05:35:58;;;;;;;35.88;19.55;;;;;;;-2.54;80.58;96474.66;4975888;28;20472;-43
2021/01/16 05:38:33;;;;;;;39.05;20.13;;;;;;;-2.21;79.40;96490.69;4961888;28;20102;-44
2021/01/16 05:41:03;;;;;;;37.25;19.20;;;;;;;-2.51;80.22;96487.44;4955765;28;20059;-44
2021/01/16 05:43:32;;;;;;;36.25;19.35;;;;;;;-2.39;80.12;96490.84;4955892;28;20142;-47
2021/01/16 05:46:02;;;;;;;37.65;19.63;;;;;;;-2.51;79.97;96498.84;4969294;28;20051;-45
2021/01/16 05:48:30;;;;;;;38.47;20.70;;;;;;;-2.53;80.50;96502.78;4974127;28;20063;-45
2021/01/16 05:50:59;;;;;;;40.75;18.98;;;;;;;-2.35;79.48;96494.63;4974837;28;20082;-43
2021/01/16 05:53:27;;;;;;;38.10;20.63;;;;;;;-2.04;78.69;96484.63;4975107;28;20055;-47
2021/01/16 05:55:58;;;;;;;32.95;18.92;;;;;;;-1.86;77.26;96488.88;4975014;28;20051;-44
2021/01/16 05:58:30;;;;;;;38.83;20.00;;;;;;;-2.08;78.09;96488.75;4964402;28;20106;-43
2021/01/16 06:01:02;;;;;;;33.42;18.88;;;;;;;-2.28;78.28;96471.44;4975124;28;20504;-43
2021/01/16 06:03:33;;;;;;;34.92;18.95;;;;;;;-2.16;78.47;96488.09;4975006;28;20074;-46
2021/01/16 06:06:00;;;;;;;33.65;19.25;;;;;;;-2.05;77.89;96483.78;4961200;28;20145;-43
2021/01/16 06:08:27;;;;;;;34.40;17.55;;;;;;;-2.26;78.92;96481.81;4976613;23;20081;-41
2021/01/16 06:10:55;;;;;;;32.15;17.80;;;;;;;-2.32;78.99;96482.75;4975269;28;20054;-41
2021/01/16 06:13:25;;;;;;;31.65;17.90;;;;;;;-2.32;78.98;96494.16;4975498;28;20065;-41
2021/01/16 06:15:54;;;;;;;31.52;16.27;;;;;;;-2.18;77.66;96484.06;4974953;28;20050;-41
2021/01/16 06:18:24;;;;;;;31.02;16.58;;;;;;;-2.40;78.70;96486.59;4975705;28;20055;-42
2021/01/16 06:20:53;;;;;;;33.88;17.10;;;;;;;-2.26;78.04;96518.94;4955818;28;20130;-40
2021/01/16 06:23:23;;;;;;;31.23;16.90;;;;;;;-2.42;78.64;96481.53;4956018;28;20079;-41
2021/01/16 06:25:55;;;;;;;33.03;16.17;;;;;;;-2.29;77.64;96482.28;4956274;28;20463;-40
2021/01/16 06:28:28;;;;;;;27.77;16.20;;;;;;;-2.48;77.89;96484.31;4956261;28;20073;-41
2021/01/16 06:30:57;;;;;;;28.60;15.43;;;;;;;-2.44;77.85;96486.28;4969851;28;20043;-41
2021/01/16 06:33:30;;;;;;;26.30;14.48;;;;;;;-2.51;78.03;96476.84;4969700;28;20150;-41
2021/01/16 06:36:04;;;;;;;30.60;15.80;;;;;;;-2.51;78.06;96484.78;4966773;28;20059;-40
2021/01/16 06:38:35;;;;;;;28.95;15.43;;;;;;;-2.48;78.51;96484.31;4954201;28;20504;-42
2021/01/16 06:41:16;;;;;;;30.52;15.23;;;;;;;-2.29;77.38;96480.44;4953775;28;20051;-42
2021/01/16 06:43:45;;;;;;;28.33;15.85;;;;;;;-2.37;77.13;96467.59;4954445;28;20075;-42
2021/01/16 06:46:15;;;;;;;29.35;15.13;;;;;;;-2.44;77.84;96475.69;4954581;28;20059;-41
2021/01/16 06:48:44;;;;;;;31.45;16.95;;;;;;;-2.44;77.86;96474.84;4953021;28;20051;-42
2021/01/16 06:51:24;;;;;;;28.00;15.20;;;;;;;-2.53;77.80;96476.28;4953199;28;20047;-41
2021/01/16 06:53:50;;;;;;;28.60;16.42;;;;;;;-2.54;77.70;96482.59;4954320;28;20078;-42
2021/01/16 06:56:26;;;;;;;31.67;16.65;;;;;;;-2.55;78.21;96486.31;4954134;28;20055;-42
2021/01/16 06:58:56;;;;;;;30.95;17.27;;;;;;;-2.55;77.93;96488.97;4946128;28;20051;-41
2021/01/16 07:01:30;;;;;;;32.10;16.83;;;;;;;-2.52;78.10;96499.88;4953849;28;20055;-42
2021/01/16 07:04:03;;;;;;;28.23;15.25;;;;;;;-2.42;77.46;96493.97;4954334;28;20086;-42
2021/01/16 07:06:50;;;;;;;29.98;16.85;;;;;;;-2.29;76.96;96488.41;4967228;28;20089;-42
2021/01/16 07:09:19;;;;;;;29.33;15.98;;;;;;;-2.35;76.90;96494.63;4979444;28;20483;-40
2021/01/16 07:11:51;;;;;;;32.08;17.45;;;;;;;-2.52;77.64;96489.28;4973528;28;20054;-42
2021/01/16 07:14:18;;;;;;;28.90;14.68;;;;;;;-2.62;77.76;96489.88;4973818;28;20058;-41
2021/01/16 07:16:49;;;;;;;31.42;17.25;;;;;;;-2.54;78.27;96498.50;4957389;28;20055;-41
2021/01/16 07:19:20;;;;;;;28.48;15.20;;;;;;;-2.42;77.66;96496.63;4953469;28;20051;-42
2021/01/16 07:21:47;;;;;;;29.40;16.25;;;;;;;-2.56;77.58;96487.34;4953667;28;20047;-41
2021/01/16 07:24:17;;;;;;;31.35;17.65;;;;;;;-2.54;77.71;96495.84;4956189;28;20493;-42
2021/01/16 07:26:49;;;;;;;31.27;17.48;;;;;;;-2.08;76.39;96507.31;4953768;28;20114;-42
2021/01/16 07:29:15;;;;;;;32.13;18.67;;;;;;;-2.32;76.50;96493.38;4954661;28;20179;-41
2021/01/16 07:31:47;;;;;;;33.50;17.85;;;;;;;-2.08;76.19;96494.91;4953145;28;20075;-43
2021/01/16 07:34:15;;;;;;;30.23;17.30;;;;;;;-2.23;76.69;96497.25;4953675;28;20115;-41
2021/01/16 07:36:42;;;;;;;30.98;17.25;;;;;;;-2.18;76.53;96500.81;4968808;28;20436;-42
2021/01/16 07:39:11;;;;;;;32.88;18.05;;;;;;;-1.90;75.63;96502.63;4973106;28;20059;-41
2021/01/16 07:41:38;;;;;;;33.17;17.85;;;;;;;-2.04;75.58;96497.88;4972016;28;20051;-42
2021/01/16 07:44:17;;;;;;;30.35;16.30;;;;;;;-2.19;75.68;96490.44;4967747;28;20193;-41
2021/01/16 07:46:43;;;;;;;27.63;15.27;;;;;;;-2.02;75.26;96498.41;4952948;29;20197;-43
2021/01/16 07:49:13;;;;;;;34.15;18.02;;;;;;;-2.36;77.39;96499.13;4959016;28;20397;-42
2021/01/16 07:51:40;;;;;;;33.92;18.25;;;;;;;-2.09;75.81;96503.06;4970816;28;20125;-40
2021/01/16 07:54:10;;;;;;;29.77;16.40;;;;;;;-2.30;76.75;96510.66;4971220;28;20532;-41
2021/01/16 07:56:37;;;;;;;34.25;18.40;;;;;;;-2.05;75.75;96505.00;4970870;28;20046;-40
2021/01/16 07:59:19;;;;;;;33.92;17.90;;;;;;;-1.99;75.21;96514.66;4968559;28;20102;-41
2021/01/16 08:01:57;;;;;;;34.17;18.00;;;;;;;-2.09;75.46;96513.69;4972912;28;20132;-42
2021/01/16 08:04:25;;;;;;;32.33;18.92;;;;;;;-2.40;76.16;96507.81;4973691;28;20134;-42
2021/01/16 08:07:03;;;;;;;32.55;17.38;;;;;;;-2.32;76.24;96506.63;4972582;28;20385;-42
2021/01/16 08:09:41;;;;;;;30.92;16.42;;;;;;;-2.16;75.48;96508.50;4973726;28;20137;-42
2021/01/16 08:12:12;;;;;;;30.13;16.55;;;;;;;-1.96;74.47;96500.13;4971274;28;20106;-41
2021/01/16 08:14:39;;;;;;;29.13;15.43;;;;;;;-2.19;74.79;96499.19;4967305;28;20094;-43
2021/01/16 08:17:18;;;;;;;33.35;17.50;;;;;;;-2.00;73.50;96493.69;4954840;28;20447;-41
2021/01/16 08:20:00;;;;;;;29.77;16.10;;;;;;;-1.74;73.32;96505.53;4972477;28;20462;-44
2021/01/16 08:22:44;;;;;;;29.90;15.70;;;;;;;-1.81;73.44;96500.41;4974893;28;20051;-41
2021/01/16 08:25:13;;;;;;;26.67;14.98;;;;;;;-1.89;72.45;96490.16;4977000;28;20050;-43
2021/01/16 08:27:48;;;;;;;27.38;15.98;;;;;;;-2.04;73.89;96492.56;4966365;28;20476;-42
2021/01/16 08:30:18;;;;;;;26.75;14.98;;;;;;;-2.13;73.23;96500.88;4967040;28;20082;-42
2021/01/16 08:32:58;;;;;;;27.33;14.13;;;;;;;-1.98;72.60;96500.38;4972289;28;20579;-42
2021/01/16 08:35:48;;;;;;;27.90;15.07;;;;;;;-2.22;73.82;96499.66;4973989;28;20412;-41
2021/01/16 08:38:14;;;;;;;27.88;15.30;;;;;;;-1.98;73.79;96502.19;4969429;28;20070;-41
2021/01/16 08:40:42;;;;;;;28.73;16.20;;;;;;;-2.37;74.11;96480.84;4971733;28;20545;-43
2021/01/16 08:43:09;;;;;;;27.63;15.30;;;;;;;-1.95;73.04;96491.94;4971293;28;20050;-41
2021/01/16 08:45:35;;;;;;;30.20;15.77;;;;;;;-2.25;74.60;96494.81;4971957;28;20195;-44
2021/01/16 08:48:02;;;;;;;27.50;15.82;;;;;;;-2.19;74.28;96496.53;4975604;28;20074;-41
2021/01/16 08:50:31;;;;;;;28.13;15.70;;;;;;;-2.09;73.62;96503.88;4965675;28;20443;-42
2021/01/16 08:52:58;;;;;;;28.20;15.95;;;;;;;-1.88;73.43;96491.78;4971354;28;20117;-41
2021/01/16 08:55:29;;;;;;;26.58;14.80;;;;;;;-1.77;72.43;96496.22;4972035;28;20102;-41
2021/01/16 08:58:10;;;;;;;28.20;15.80;;;;;;;-1.48;71.89;96491.63;4969507;28;20059;-46
2021/01/16 09:00:40;;;;;;;28.00;16.23;;;;;;;-1.62;71.54;96502.84;4973697;28;20109;-42
2021/01/16 09:03:12;;;;;;;29.42;14.75;;;;;;;-1.66;71.81;96490.03;4971733;28;20076;-46
2021/01/16 09:05:40;;;;;;;29.02;15.90;;;;;;;-1.55;71.55;96500.81;4969314;28;20516;-44
2021/01/16 09:08:32;;;;;;;26.58;15.73;;;;;;;-1.10;70.76;96495.41;4970511;28;20055;-44
2021/01/16 09:11:13;;;;;;;23.50;14.05;;;;;;;-1.50;69.68;96499.03;4969677;28;20055;-42
2021/01/16 09:13:42;;;;;;;25.98;14.80;;;;;;;-1.71;71.36;96505.06;4965645;28;20087;-41
2021/01/16 09:16:29;;;;;;;26.10;14.50;;;;;;;-1.54;70.76;96502.41;4970821;28;20039;-41
2021/01/16 09:18:56;;;;;;;24.90;14.20;;;;;;;-1.59;69.91;96500.50;4967792;28;20059;-43
2021/01/16 09:21:24;;;;;;;27.60;15.35;;;;;;;-1.52;70.36;96509.09;4956606;28;20083;-46
2021/01/16 09:23:51;;;;;;;25.30;13.18;;;;;;;-1.90;70.36;96512.44;4967946;28;20083;-42
2021/01/16 09:26:20;;;;;;;23.08;13.40;;;;;;;-1.72;69.81;96504.28;4976126;28;20055;-43
2021/01/16 09:28:50;;;;;;;25.83;14.15;;;;;;;-1.51;70.28;96513.34;4979270;28;20039;-43
2021/01/16 09:31:25;;;;;;;21.25;12.15;;;;;;;-1.51;68.92;96517.84;4974927;28;20065;-43
2021/01/16 09:33:58;;;;;;;23.83;11.90;;;;;;;-1.68;70.01;96513.34;4976271;28;20051;-41
2021/01/16 09:36:39;;;;;;;22.17;13.25;;;;;;;-1.81;71.11;96505.69;4976089;28;20046;-42
2021/01/16 09:39:17;;;;;;;24.45;13.43;;;;;;;-1.83;71.09;96515.72;4975401;28;20121;-41
2021/01/16 09:41:51;;;;;;;24.80;12.65;;;;;;;-1.69;69.99;96498.47;4977059;28;20071;-42
2021/01/16 09:44:43;;;;;;;23.50;12.07;;;;;;;-1.73;70.12;96513.25;4975235;28;20096;-41
2021/01/16 09:47:32;;;;;;;28.13;14.63;;;;;;;-1.66;70.81;96508.63;4968064;28;20062;-42
2021/01/16 09:50:19;;;;;;;30.23;13.90;;;;;;;-1.69;70.94;96508.25;4957591;28;20055;-44
2021/01/16 09:52:47;;;;;;;24.58;13.15;;;;;;;-1.72;70.09;96508.78;4955207;28;20051;-42
2021/01/16 09:55:31;;;;;;;23.85;13.20;;;;;;;-1.61;70.50;96499.13;4954334;29;20512;-41
2021/01/16 09:58:00;;;;;;;28.90;13.90;;;;;;;-1.55;70.92;96500.81;4955422;28;20055;-41
2021/01/16 10:00:35;;;;;;;25.75;15.02;;;;;;;-1.68;71.41;96492.13;4955774;28;20051;-42
2021/01/16 10:03:06;;;;;;;26.35;14.27;;;;;;;-1.54;70.76;96497.09;4954935;28;20047;-41
2021/01/16 10:05:42;;;;;;;25.38;14.65;;;;;;;-1.37;70.88;96481.19;4955367;28;20102;-41
2021/01/16 10:08:09;;;;;;;24.73;14.35;;;;;;;-1.27;69.60;96490.13;4955256;28;20054;-42
2021/01/16 10:10:47;;;;;;;24.20;13.82;;;;;;;-1.46;70.83;96481.59;4956876;28;20051;-41
2021/01/16 10:13:29;;;;;;;25.90;12.77;;;;;;;-1.76;70.74;96470.47;4954687;28;20058;-43
2021/01/16 10:15:59;;;;;;;21.67;11.30;;;;;;;-1.69;70.44;96471.13;4955622;28;20062;-42
2021/01/16 10:18:27;;;;;;;21.38;12.35;;;;;;;-1.65;70.40;96459.00;4955573;28;20063;-42
2021/01/16 10:21:01;;;;;;;25.83;13.60;;;;;;;-1.29;70.03;96470.97;4973578;28;20215;-41
2021/01/16 10:23:31;;;;;;;26.90;14.38;;;;;;;-1.38;70.54;96461.78;4974722;28;20063;-44
2021/01/16 10:26:08;;;;;;;23.77;11.70;;;;;;;-1.74;69.92;96453.28;4976045;28;20109;-42
2021/01/16 10:28:38;;;;;;;23.65;11.80;;;;;;;-1.60;69.41;96455.63;4966709;28;20102;-42
2021/01/16 10:31:09;;;;;;;23.60;11.05;;;;;;;-1.54;69.38;96458.09;4955267;28;20051;-45
2021/01/16 10:33:36;;;;;;;26.92;14.52;;;;;;;-1.85;71.52;96443.56;4954930;28;20134;-42
2021/01/16 10:36:14;;;;;;;20.55;11.10;;;;;;;-1.67;69.16;96440.66;4955431;28;20502;-43
2021/01/16 10:38:44;;;;;;;22.92;12.68;;;;;;;-1.42;69.47;96434.94;4964025;28;20519;-41
2021/01/16 10:41:13;;;;;;;25.55;14.68;;;;;;;-1.00;68.84;96431.00;4973951;28;20141;-42
2021/01/16 10:43:40;;;;;;;24.25;13.38;;;;;;;-0.82;67.63;96428.00;4974914;28;20054;-43
2021/01/16 10:46:13;;;;;;;21.98;13.02;;;;;;;-0.97;67.90;96433.97;4972521;28;20695;-42
2021/01/16 10:48:41;;;;;;;22.65;11.98;;;;;;;-1.32;68.75;96428.97;4955220;28;20118;-41
2021/01/16 10:51:09;;;;;;;23.83;12.93;;;;;;;-1.39;69.03;96428.34;4955184;28;20190;-42
2021/01/16 10:53:38;;;;;;;23.80;12.85;;;;;;;-1.33;69.66;96432.69;4954770;28;20051;-43
2021/01/16 10:56:16;;;;;;;26.15;14.27;;;;;;;-1.16;69.11;96421.22;4954591;28;20063;-42
2021/01/16 10:58:44;;;;;;;22.00;12.10;;;;;;;-1.26;68.74;96414.72;4955268;28;20055;-42
2021/01/16 11:01:12;;;;;;;20.67;11.23;;;;;;;-1.50;69.82;96419.41;4954118;28;20416;-42
2021/01/16 11:03:38;;;;;;;23.70;13.45;;;;;;;-1.41;70.43;96414.50;4954788;28;20102;-42
2021/01/16 11:06:07;;;;;;;23.80;12.82;;;;;;;-1.27;69.55;96414.94;4955130;28;20053;-42
2021/01/16 11:08:36;;;;;;;24.98;13.00;;;;;;;-1.05;69.81;96407.00;4954584;28;20055;-41
2021/01/16 11:11:25;;;;;;;23.77;12.68;;;;;;;-1.03;68.84;96407.59;4955347;28;20047;-43
2021/01/16 11:13:53;;;;;;;23.48;13.55;;;;;;;-1.10;69.75;96409.63;4957915;28;20517;-44
2021/01/16 11:16:22;;;;;;;22.25;12.25;;;;;;;-1.33;70.39;96406.13;4977553;28;20086;-42
2021/01/16 11:18:51;;;;;;;26.38;14.70;;;;;;;-1.57;71.74;96391.44;4976522;28;20330;-42
2021/01/16 11:21:35;;;;;;;28.98;15.63;;;;;;;-1.51;72.35;96393.13;4973888;28;20481;-42
2021/01/16 11:24:29;;;;;;;25.67;14.10;;;;;;;-1.30;70.84;96395.03;4973491;28;20449;-42
2021/01/16 11:26:58;;;;;;;23.90;12.23;;;;;;;-1.38;70.34;96387.47;4973840;28;20051;-41
2021/01/16 11:29:39;;;;;;;17.67;10.10;;;;;;;-1.39;69.65;96387.75;4963874;28;20066;-43
2021/01/16 11:32:17;;;;;;;16.90;9.25;;;;;;;-1.20;68.09;96379.22;4955147;28;20498;-42
2021/01/16 11:35:11;;;;;;;19.15;10.35;;;;;;;-1.51;69.08;96380.66;4954390;28;20138;-43